createdAt,value
2022-10-26T00:01:06.322Z,11.30
2022-10-26T00:03:35.052Z,11.20
2022-10-26T00:06:07.911Z,11.20
2022-10-26T00:08:37.338Z,11.20
2022-10-26T00:11:05.484Z,11.20
2022-10-26T00:13:33.602Z,11.10
2022-10-26T00:16:01.773Z,11.10
2022-10-26T00:18:29.606Z,11.10
2022-10-26T00:21:03.211Z,11.10
2022-10-26T00:23:31.190Z,11.00
2022-10-26T00:26:00.638Z,11.10
2022-10-26T00:28:28.551Z,11.00
2022-10-26T00:30:58.630Z,11.00
2022-10-26T00:33:27.654Z,11.00
2022-10-26T00:35:55.738Z,11.00
2022-10-26T00:38:23.599Z,10.90
2022-10-26T00:40:51.637Z,10.90
2022-10-26T00:43:36.769Z,10.80
2022-10-26T00:46:09.141Z,10.80
2022-10-26T00:48:40.533Z,10.70
2022-10-26T00:51:11.873Z,10.70
2022-10-26T00:53:40.266Z,10.70
2022-10-26T00:56:09.189Z,10.60
2022-10-26T00:58:39.704Z,10.60
2022-10-26T01:01:07.563Z,10.60
2022-10-26T01:03:36.787Z,10.50
2022-10-26T01:06:06.453Z,10.40
2022-10-26T01:08:35.087Z,10.40
2022-10-26T01:11:03.352Z,10.40
2022-10-26T01:13:35.757Z,10.40
2022-10-26T01:16:29.358Z,10.30
2022-10-26T01:19:09.703Z,10.30
2022-10-26T01:21:50.590Z,10.30
2022-10-26T01:24:31.178Z,10.20
2022-10-26T01:27:07.300Z,10.10
2022-10-26T01:30:03.036Z,10.10
2022-10-26T01:32:36.300Z,10.10
2022-10-26T01:35:09.109Z,10.00
2022-10-26T01:37:42.687Z,10.00
2022-10-26T01:40:17.685Z,10.00
2022-10-26T01:42:52.344Z,9.90
2022-10-26T01:45:20.668Z,9.90
2022-10-26T01:47:51.040Z,9.90
2022-10-26T01:50:20.796Z,9.90
2022-10-26T01:52:50.951Z,9.90
2022-10-26T01:55:44.274Z,9.80
2022-10-26T01:58:25.282Z,9.80
2022-10-26T02:01:04.697Z,9.80
2022-10-26T02:03:39.075Z,9.70
2022-10-26T02:06:16.979Z,9.70
2022-10-26T02:08:59.207Z,9.70
2022-10-26T02:11:38.407Z,9.70
2022-10-26T02:16:56.038Z,9.60
2022-10-26T02:19:33.562Z,9.60
2022-10-26T02:22:10.669Z,9.60
2022-10-26T02:24:40.767Z,9.60
2022-10-26T02:27:14.267Z,9.50
2022-10-26T02:29:43.463Z,9.60
2022-10-26T02:32:12.466Z,9.60
2022-10-26T02:34:46.346Z,9.60
2022-10-26T02:37:16.498Z,9.60
2022-10-26T02:39:46.358Z,9.50
2022-10-26T02:42:15.314Z,9.60
2022-10-26T02:44:47.073Z,9.60
2022-10-26T02:47:15.024Z,9.60
2022-10-26T02:49:44.676Z,9.60
2022-10-26T02:52:18.041Z,9.70
2022-10-26T02:54:53.861Z,9.80
2022-10-26T02:57:26.003Z,9.90
2022-10-26T02:59:54.838Z,9.90
2022-10-26T03:02:24.181Z,10.00
2022-10-26T03:04:54.682Z,10.10
2022-10-26T03:07:23.734Z,10.10
2022-10-26T03:09:51.989Z,10.20
2022-10-26T03:12:19.744Z,10.20
2022-10-26T03:14:47.442Z,10.30
2022-10-26T03:17:15.157Z,10.30
2022-10-26T03:19:42.919Z,10.30
2022-10-26T03:22:11.960Z,10.30
2022-10-26T03:24:39.731Z,10.30
2022-10-26T03:27:07.529Z,10.20
2022-10-26T03:29:35.249Z,10.30
2022-10-26T03:32:02.978Z,10.30
2022-10-26T03:34:30.685Z,10.30
2022-10-26T03:36:58.430Z,10.30
2022-10-26T03:39:27.479Z,10.30
2022-10-26T03:41:55.876Z,10.30
2022-10-26T03:44:23.901Z,10.30
2022-10-26T03:46:51.627Z,10.30
2022-10-26T03:49:19.370Z,10.30
2022-10-26T03:51:47.059Z,10.30
2022-10-26T03:54:14.846Z,10.20
2022-10-26T03:56:43.985Z,10.20
2022-10-26T03:59:11.845Z,10.20
2022-10-26T04:01:40.061Z,10.10
2022-10-26T04:04:10.408Z,10.10
2022-10-26T04:06:38.338Z,10.10
2022-10-26T04:09:08.426Z,10.00
2022-10-26T04:11:39.017Z,9.90
2022-10-26T04:14:08.109Z,9.90
2022-10-26T04:16:35.842Z,9.80
2022-10-26T04:19:03.623Z,9.80
2022-10-26T04:21:37.064Z,9.70
2022-10-26T04:24:07.903Z,9.70
2022-10-26T04:26:35.883Z,9.70
2022-10-26T04:29:06.650Z,9.60
2022-10-26T04:31:38.624Z,9.60
2022-10-26T04:34:06.482Z,9.50
2022-10-26T04:36:34.533Z,9.50
2022-10-26T04:39:02.414Z,9.50
2022-10-26T04:41:30.151Z,9.40
2022-10-26T04:43:58.032Z,9.40
2022-10-26T04:46:25.899Z,9.40
2022-10-26T04:48:54.929Z,9.30
2022-10-26T04:51:22.619Z,9.30
2022-10-26T04:53:50.329Z,9.30
2022-10-26T04:56:18.024Z,9.20
2022-10-26T04:58:45.967Z,9.20
2022-10-26T05:01:13.911Z,9.20
2022-10-26T05:03:41.924Z,9.10
2022-10-26T05:06:10.961Z,9.10
2022-10-26T05:08:38.682Z,9.10
2022-10-26T05:11:06.587Z,9.10
2022-10-26T05:13:34.296Z,9.00
2022-10-26T05:16:02.202Z,9.10
2022-10-26T05:18:29.908Z,9.00
2022-10-26T05:20:57.677Z,9.00
2022-10-26T05:23:26.850Z,9.00
2022-10-26T05:25:56.253Z,9.00
2022-10-26T05:28:23.990Z,8.90
2022-10-26T05:30:52.017Z,8.90
2022-10-26T05:33:19.979Z,8.90
2022-10-26T05:35:47.647Z,8.90
2022-10-26T05:38:17.154Z,8.90
2022-10-26T05:40:49.581Z,8.90
2022-10-26T05:43:17.808Z,8.80
2022-10-26T05:45:48.245Z,8.80
2022-10-26T05:48:15.987Z,8.80
2022-10-26T05:50:43.884Z,8.80
2022-10-26T05:53:11.804Z,8.70
2022-10-26T05:55:40.426Z,8.70
2022-10-26T05:58:12.863Z,8.70
2022-10-26T06:00:50.555Z,8.70
2022-10-26T06:06:03.994Z,8.60
2022-10-26T06:08:34.805Z,8.60
2022-10-26T06:11:03.053Z,8.60
2022-10-26T06:13:32.974Z,8.60
2022-10-26T06:16:13.726Z,8.50
2022-10-26T06:18:57.096Z,8.50
2022-10-26T06:21:38.693Z,8.50
2022-10-26T06:24:12.338Z,8.50
2022-10-26T06:26:47.011Z,8.50
2022-10-26T06:29:25.753Z,8.50
2022-10-26T06:31:53.488Z,8.50
2022-10-26T06:34:25.994Z,8.50
2022-10-26T06:39:30.268Z,8.50
2022-10-26T06:41:59.391Z,8.50
2022-10-26T06:44:29.309Z,8.50
2022-10-26T06:47:05.990Z,8.50
2022-10-26T06:49:38.087Z,8.50
2022-10-26T06:52:13.393Z,8.50
2022-10-26T06:54:49.484Z,8.60
2022-10-26T06:57:19.241Z,8.60
2022-10-26T06:59:51.539Z,8.70
2022-10-26T07:02:19.730Z,8.70
2022-10-26T07:04:48.050Z,8.70
2022-10-26T07:07:19.042Z,8.80
2022-10-26T07:09:46.756Z,8.80
2022-10-26T07:12:14.514Z,8.80
2022-10-26T07:14:42.282Z,8.90
2022-10-26T07:17:11.664Z,8.90
2022-10-26T07:19:40.429Z,8.90
2022-10-26T07:22:08.175Z,9.00
2022-10-26T07:24:36.297Z,9.10
2022-10-26T07:27:03.996Z,9.00
2022-10-26T07:29:31.851Z,9.10
2022-10-26T07:31:59.594Z,9.20
2022-10-26T07:34:28.816Z,9.30
2022-10-26T07:36:56.579Z,9.30
2022-10-26T07:39:24.421Z,9.40
2022-10-26T07:41:52.344Z,9.50
2022-10-26T07:44:20.169Z,9.50
2022-10-26T07:46:47.866Z,9.60
2022-10-26T07:49:19.164Z,9.70
2022-10-26T07:51:48.933Z,9.80
2022-10-26T07:54:16.628Z,10.00
2022-10-26T07:56:44.567Z,10.00
2022-10-26T07:59:13.028Z,10.20
2022-10-26T08:01:40.762Z,10.20
2022-10-26T08:04:08.521Z,10.30
2022-10-26T08:06:36.293Z,10.30
2022-10-26T08:09:05.719Z,10.30
2022-10-26T08:11:33.641Z,10.30
2022-10-26T08:14:01.297Z,10.30
2022-10-26T08:16:30.129Z,10.40
2022-10-26T08:18:57.862Z,10.40
2022-10-26T08:21:36.106Z,10.40
2022-10-26T08:24:10.131Z,10.40
2022-10-26T08:26:38.003Z,10.50
2022-10-26T08:29:06.044Z,10.50
2022-10-26T08:31:33.746Z,10.60
2022-10-26T08:34:01.805Z,10.70
2022-10-26T08:36:29.920Z,10.70
2022-10-26T08:38:57.756Z,10.80
2022-10-26T08:41:35.890Z,10.90
2022-10-26T08:44:12.489Z,10.90
2022-10-26T08:46:45.598Z,11.00
2022-10-26T08:49:21.673Z,11.10
2022-10-26T08:51:53.410Z,11.10
2022-10-26T08:54:29.567Z,11.20
2022-10-26T08:57:01.856Z,11.30
2022-10-26T08:59:35.352Z,11.40
2022-10-26T09:02:03.316Z,11.40
2022-10-26T09:04:33.987Z,11.50
2022-10-26T09:07:09.498Z,11.60
2022-10-26T09:09:46.830Z,11.60
2022-10-26T09:12:25.018Z,11.70
2022-10-26T09:15:05.906Z,11.70
2022-10-26T09:17:42.466Z,11.80
2022-10-26T09:20:41.471Z,11.90
2022-10-26T09:23:22.198Z,11.90
2022-10-26T09:25:55.851Z,12.00
2022-10-26T09:28:25.391Z,12.00
2022-10-26T09:30:53.076Z,12.10
2022-10-26T09:33:25.158Z,12.20
2022-10-26T09:35:57.699Z,12.20
2022-10-26T09:38:30.449Z,12.20
2022-10-26T09:41:02.623Z,12.30
2022-10-26T09:43:37.168Z,12.40
2022-10-26T09:46:04.911Z,12.40
2022-10-26T09:48:37.756Z,12.40
2022-10-26T09:51:05.833Z,12.50
2022-10-26T09:53:33.738Z,12.60
2022-10-26T09:56:06.263Z,12.70
2022-10-26T09:58:39.259Z,12.70
2022-10-26T10:01:07.181Z,12.80
2022-10-26T10:03:35.035Z,12.80
2022-10-26T10:06:17.570Z,12.90
2022-10-26T10:08:46.529Z,13.00
2022-10-26T10:11:15.990Z,13.00
2022-10-26T10:13:46.988Z,13.10
2022-10-26T10:16:21.414Z,13.10
2022-10-26T10:18:55.460Z,13.20
2022-10-26T10:21:33.877Z,13.20
2022-10-26T10:24:01.668Z,13.30
2022-10-26T10:26:29.478Z,13.40
2022-10-26T10:29:00.851Z,13.40
2022-10-26T10:31:30.320Z,13.50
2022-10-26T10:33:58.229Z,13.60
2022-10-26T10:36:29.624Z,13.60
2022-10-26T10:38:57.655Z,13.70
2022-10-26T10:41:29.271Z,13.70
2022-10-26T10:44:04.308Z,13.80
2022-10-26T10:46:32.124Z,13.80
2022-10-26T10:49:05.490Z,13.90
2022-10-26T10:51:39.472Z,14.00
2022-10-26T10:54:12.354Z,14.00
2022-10-26T10:56:43.227Z,14.10
2022-10-26T10:59:36.610Z,14.10
2022-10-26T11:02:35.368Z,14.20
2022-10-26T11:05:24.910Z,14.30
2022-10-26T11:07:58.977Z,14.40
2022-10-26T11:10:30.727Z,14.50
2022-10-26T11:13:00.676Z,14.50
2022-10-26T11:15:34.852Z,14.60
2022-10-26T11:18:07.571Z,14.60
2022-10-26T11:20:39.587Z,14.70
2022-10-26T11:23:12.867Z,14.70
2022-10-26T11:25:45.715Z,14.80
2022-10-26T11:28:18.590Z,14.80
2022-10-26T11:30:53.025Z,14.90
2022-10-26T11:33:26.932Z,14.90
2022-10-26T11:35:59.686Z,15.00
2022-10-26T11:38:45.415Z,15.00
2022-10-26T11:41:21.057Z,15.10
2022-10-26T11:43:50.982Z,15.10
2022-10-26T11:46:25.247Z,15.20
2022-10-26T11:48:56.773Z,15.30
2022-10-26T11:51:39.028Z,15.30
2022-10-26T11:54:12.888Z,15.40
2022-10-26T11:56:47.075Z,15.40
2022-10-26T11:59:20.269Z,15.40
2022-10-26T12:01:52.067Z,15.40
2022-10-26T12:04:21.283Z,15.50
2022-10-26T12:06:51.245Z,15.50
2022-10-26T12:09:24.337Z,15.50
2022-10-26T12:11:58.793Z,15.60
2022-10-26T12:14:31.877Z,15.60
2022-10-26T12:17:08.042Z,15.60
2022-10-26T12:19:43.534Z,15.70
2022-10-26T12:22:14.014Z,15.70
2022-10-26T12:24:45.735Z,15.80
2022-10-26T12:27:32.941Z,15.80
2022-10-26T12:30:26.988Z,15.80
2022-10-26T12:32:57.397Z,15.80
2022-10-26T12:35:37.484Z,15.80
2022-10-26T12:38:44.379Z,15.90
2022-10-26T12:41:23.657Z,15.90
2022-10-26T12:43:51.549Z,15.90
2022-10-26T12:46:45.221Z,15.90
2022-10-26T12:49:52.070Z,15.90
2022-10-26T12:52:27.307Z,15.90
2022-10-26T12:55:25.353Z,15.90
2022-10-26T12:58:05.087Z,15.90
2022-10-26T13:00:38.852Z,16.00
2022-10-26T13:03:17.878Z,16.00
2022-10-26T13:06:05.620Z,16.00
2022-10-26T13:08:42.238Z,16.10
2022-10-26T13:11:18.944Z,16.10
2022-10-26T13:13:55.043Z,16.10
2022-10-26T13:16:25.201Z,16.10
2022-10-26T13:18:53.120Z,16.10
2022-10-26T13:21:23.391Z,16.10
2022-10-26T13:24:02.150Z,16.10
2022-10-26T13:26:31.408Z,16.20
2022-10-26T13:29:00.523Z,16.10
2022-10-26T13:31:54.344Z,16.10
2022-10-26T13:34:23.709Z,16.10
2022-10-26T13:36:55.176Z,16.10
2022-10-26T13:39:28.130Z,16.10
2022-10-26T13:41:58.392Z,16.10
2022-10-26T13:44:30.373Z,16.10
2022-10-26T13:47:03.062Z,16.10
2022-10-26T13:49:35.414Z,16.10
2022-10-26T13:52:05.089Z,16.10
2022-10-26T13:54:38.811Z,16.10
2022-10-26T13:57:17.918Z,16.00
2022-10-26T13:59:46.549Z,16.00
2022-10-26T14:02:20.819Z,16.00
2022-10-26T14:04:49.631Z,15.90
2022-10-26T14:07:22.742Z,15.90
2022-10-26T14:09:57.598Z,15.90
2022-10-26T14:12:28.869Z,15.80
2022-10-26T14:15:06.659Z,15.80
2022-10-26T14:17:34.869Z,15.80
2022-10-26T14:20:03.661Z,15.70
2022-10-26T14:22:31.784Z,15.70
2022-10-26T14:25:01.842Z,15.70
2022-10-26T14:27:34.240Z,15.70
2022-10-26T14:30:21.676Z,15.70
2022-10-26T14:32:51.530Z,15.70
2022-10-26T14:35:21.663Z,15.70
2022-10-26T14:37:53.536Z,15.70
2022-10-26T14:40:25.837Z,15.70
2022-10-26T14:42:56.646Z,15.70
2022-10-26T14:45:47.655Z,15.70
2022-10-26T14:48:23.460Z,15.60
2022-10-26T14:51:02.364Z,15.60
2022-10-26T14:53:38.997Z,15.60
2022-10-26T14:56:26.440Z,15.50
2022-10-26T14:58:55.017Z,15.50
2022-10-26T15:01:34.607Z,15.40
2022-10-26T15:04:05.954Z,15.40
2022-10-26T15:06:43.061Z,15.30
2022-10-26T15:09:39.026Z,15.20
2022-10-26T15:12:09.454Z,15.20
2022-10-26T15:14:37.611Z,15.10
2022-10-26T15:17:05.498Z,15.10
2022-10-26T15:19:33.942Z,15.00
2022-10-26T15:22:01.812Z,15.00
2022-10-26T15:24:37.445Z,14.90
2022-10-26T15:27:16.002Z,14.80
2022-10-26T15:29:45.504Z,14.80
2022-10-26T15:32:28.942Z,14.70
2022-10-26T15:35:24.044Z,14.60
2022-10-26T15:37:55.079Z,14.50
2022-10-26T15:40:23.732Z,14.50
2022-10-26T15:42:54.134Z,14.40
2022-10-26T15:45:23.750Z,14.30
2022-10-26T15:47:53.062Z,14.20
2022-10-26T15:50:23.026Z,14.10
2022-10-26T15:52:51.834Z,14.10
2022-10-26T15:55:19.890Z,14.00
2022-10-26T15:57:47.888Z,13.90
2022-10-26T16:00:18.634Z,13.90
2022-10-26T16:02:47.098Z,13.80
2022-10-26T16:05:17.085Z,13.70
2022-10-26T16:07:47.866Z,13.60
2022-10-26T16:10:20.813Z,13.60
2022-10-26T16:12:50.163Z,13.60
2022-10-26T16:15:21.473Z,13.60
2022-10-26T16:17:49.721Z,13.60
2022-10-26T16:20:22.770Z,13.60
2022-10-26T16:22:51.785Z,13.60
2022-10-26T16:25:21.991Z,13.60
2022-10-26T16:27:50.383Z,13.60
2022-10-26T16:30:20.659Z,13.60
2022-10-26T16:32:49.042Z,13.70
2022-10-26T16:35:17.210Z,13.60
2022-10-26T16:37:46.330Z,13.60
2022-10-26T16:40:14.330Z,13.60
2022-10-26T16:42:43.855Z,13.60
2022-10-26T16:45:15.801Z,13.60
2022-10-26T16:47:44.839Z,13.60
2022-10-26T16:50:14.414Z,13.60
2022-10-26T16:52:42.776Z,13.60
2022-10-26T16:55:11.008Z,13.60
2022-10-26T16:57:38.822Z,13.50
2022-10-26T17:00:08.030Z,13.50
2022-10-26T17:02:36.075Z,13.50
2022-10-26T17:05:07.605Z,13.50
2022-10-26T17:07:35.759Z,13.50
2022-10-26T17:10:06.034Z,13.50
2022-10-26T17:12:33.933Z,13.50
2022-10-26T17:15:02.547Z,13.50
2022-10-26T17:17:30.416Z,13.50
2022-10-26T17:19:58.622Z,13.50
2022-10-26T17:22:27.630Z,13.50
2022-10-26T17:24:55.328Z,13.50
2022-10-26T17:27:23.053Z,13.50
2022-10-26T17:29:51.006Z,13.50
2022-10-26T17:32:18.806Z,13.40
2022-10-26T17:34:46.494Z,13.40
2022-10-26T17:37:14.176Z,13.40
2022-10-26T17:39:43.234Z,13.40
2022-10-26T17:42:11.020Z,13.50
2022-10-26T17:44:39.122Z,13.50
2022-10-26T17:47:07.011Z,13.50
2022-10-26T17:49:36.260Z,13.60
2022-10-26T17:52:05.899Z,13.60
2022-10-26T17:54:33.781Z,13.70
2022-10-26T17:57:02.915Z,13.70
2022-10-26T17:59:30.684Z,13.80
2022-10-26T18:01:58.497Z,13.90
2022-10-26T18:04:26.452Z,13.80
2022-10-26T18:06:54.490Z,13.90
2022-10-26T18:09:22.474Z,14.00
2022-10-26T18:11:53.433Z,14.00
2022-10-26T18:14:25.472Z,14.00
2022-10-26T18:16:53.156Z,14.10
2022-10-26T18:19:20.979Z,14.10
2022-10-26T18:21:48.694Z,14.10
2022-10-26T18:24:16.414Z,14.10
2022-10-26T18:26:44.379Z,14.10
2022-10-26T18:29:13.787Z,14.10
2022-10-26T18:31:45.347Z,14.10
2022-10-26T18:34:13.123Z,14.10
2022-10-26T18:36:40.986Z,14.10
2022-10-26T18:39:08.723Z,14.10
2022-10-26T18:41:36.511Z,14.10
2022-10-26T18:44:04.619Z,14.10
2022-10-26T18:46:39.622Z,14.10
2022-10-26T18:49:13.940Z,14.10
2022-10-26T18:51:41.814Z,14.10
2022-10-26T18:54:09.619Z,14.10
2022-10-26T18:56:37.361Z,14.10
2022-10-26T18:59:05.777Z,14.10
2022-10-26T19:01:35.902Z,14.10
2022-10-26T19:04:05.903Z,14.10
2022-10-26T19:06:36.845Z,14.10
2022-10-26T19:09:05.908Z,14.10
2022-10-26T19:11:34.444Z,14.10
2022-10-26T19:14:02.804Z,14.10
2022-10-26T19:16:45.251Z,14.10
2022-10-26T19:19:14.552Z,14.20
2022-10-26T19:21:44.000Z,14.10
2022-10-26T19:24:13.936Z,14.20
2022-10-26T19:26:43.741Z,14.10
2022-10-26T19:29:13.791Z,14.10
2022-10-26T19:31:42.116Z,14.10
2022-10-26T19:34:12.306Z,14.20
2022-10-26T19:36:44.022Z,14.20
2022-10-26T19:39:13.294Z,14.20
2022-10-26T19:41:41.133Z,14.30
2022-10-26T19:44:10.651Z,14.30
2022-10-26T19:46:39.593Z,14.30
2022-10-26T19:49:07.527Z,14.30
2022-10-26T19:51:35.855Z,14.30
2022-10-26T19:54:05.972Z,14.30
2022-10-26T19:56:36.669Z,14.30
2022-10-26T19:59:04.809Z,14.30
2022-10-26T20:01:32.774Z,14.30
2022-10-26T20:04:02.278Z,14.30
2022-10-26T20:06:30.782Z,14.20
2022-10-26T20:08:58.638Z,14.20
2022-10-26T20:11:26.373Z,14.10
2022-10-26T20:13:56.303Z,14.10
2022-10-26T20:16:24.069Z,14.10
2022-10-26T20:18:51.861Z,14.10
2022-10-26T20:21:19.946Z,14.10
2022-10-26T20:23:47.674Z,14.10
2022-10-26T20:26:19.819Z,14.10
2022-10-26T20:28:48.636Z,14.10
2022-10-26T20:31:18.630Z,14.00
2022-10-26T20:33:46.341Z,14.00
2022-10-26T20:36:14.130Z,14.00
2022-10-26T20:38:42.329Z,14.00
2022-10-26T20:41:14.556Z,14.00
2022-10-26T20:43:43.571Z,14.00
2022-10-26T20:46:12.485Z,14.00
2022-10-26T20:48:42.356Z,13.90
2022-10-26T20:51:19.801Z,13.90
2022-10-26T20:53:54.398Z,13.90
2022-10-26T20:56:25.390Z,13.90
2022-10-26T20:58:56.165Z,13.90
2022-10-26T21:01:26.257Z,13.90
2022-10-26T21:03:56.511Z,13.80
2022-10-26T21:06:25.420Z,13.80
2022-10-26T21:08:54.564Z,13.80
2022-10-26T21:11:23.593Z,13.80
2022-10-26T21:13:53.280Z,13.80
2022-10-26T21:18:49.776Z,13.80
2022-10-26T21:21:18.867Z,13.80
2022-10-26T21:23:46.557Z,13.70
2022-10-26T21:26:14.429Z,13.70
2022-10-26T21:28:45.695Z,13.70
2022-10-26T21:31:16.294Z,13.70
2022-10-26T21:33:44.747Z,13.70
2022-10-26T21:36:13.541Z,13.70
2022-10-26T21:38:44.014Z,13.70
2022-10-26T21:41:13.979Z,13.70
2022-10-26T21:43:43.434Z,13.70
2022-10-26T21:46:12.052Z,13.70
2022-10-26T21:48:42.149Z,13.70
2022-10-26T21:51:13.092Z,13.70
2022-10-26T21:53:42.809Z,13.70
2022-10-26T21:56:12.822Z,13.70
2022-10-26T21:58:46.963Z,13.70
2022-10-26T22:01:16.417Z,13.70
2022-10-26T22:04:00.138Z,13.70
2022-10-26T22:06:27.845Z,13.70
2022-10-26T22:08:57.074Z,13.70
2022-10-26T22:11:25.637Z,13.80
2022-10-26T22:13:54.119Z,13.80
2022-10-26T22:16:23.720Z,13.80
2022-10-26T22:18:55.660Z,13.80
2022-10-26T22:21:26.382Z,13.80
2022-10-26T22:23:55.954Z,13.80
2022-10-26T22:26:25.253Z,13.90
2022-10-26T22:28:54.994Z,13.80
2022-10-26T22:31:25.407Z,13.90
2022-10-26T22:33:54.035Z,13.80
2022-10-26T22:36:22.171Z,13.80
2022-10-26T22:38:50.735Z,13.90
2022-10-26T22:41:20.874Z,13.90
2022-10-26T22:43:50.681Z,13.90
2022-10-26T22:46:20.448Z,13.90
2022-10-26T22:48:48.491Z,13.90
2022-10-26T22:51:18.499Z,13.80
2022-10-26T22:53:46.456Z,13.80
2022-10-26T22:56:15.061Z,13.80
2022-10-26T22:58:44.141Z,13.80
2022-10-26T23:01:14.009Z,13.80
2022-10-26T23:03:42.121Z,13.80
2022-10-26T23:06:11.872Z,13.80
2022-10-26T23:08:39.664Z,13.80
2022-10-26T23:11:10.493Z,13.80
2022-10-26T23:13:38.383Z,13.80
2022-10-26T23:16:09.493Z,13.80
2022-10-26T23:18:37.771Z,13.80
2022-10-26T23:21:07.321Z,13.80
2022-10-26T23:23:35.527Z,13.80
2022-10-26T23:26:04.527Z,13.80
2022-10-26T23:28:32.314Z,13.80
2022-10-26T23:31:00.079Z,13.80
2022-10-26T23:33:29.512Z,13.80
2022-10-26T23:35:57.856Z,13.80
2022-10-26T23:38:26.053Z,13.80
2022-10-26T23:40:54.991Z,13.90
2022-10-26T23:43:23.604Z,13.90
2022-10-26T23:45:52.083Z,13.90
2022-10-26T23:48:20.632Z,13.80
2022-10-26T23:50:51.025Z,13.80
2022-10-26T23:53:20.997Z,13.80
2022-10-26T23:55:49.607Z,13.80
2022-10-26T23:58:18.845Z,13.80
